Latest Weather Observations for Coldstream

IDV60901

Issued at 4:21 pm EDT Sunday 21 December 2014 (issued every 10 minutes, with the page automatically refreshed every 10 minutes)

About weather observations | Map of Melbourne area stations | Latest observations for Melbourne area | Other Formats
Station Details ID: 086383 Name: COLDSTREAM Lat: -37.72 Lon: 145.41 Height: 83.0 m
Data from the previous 72 hours. | See also: Recent months at Coldstream
Date/Time
EDT
Tmp

°C
App
Tmp
°C
Dew
Point
°C
Rel
Hum
%
Delta-T

°C
Wind Press
QNH
hPa
Press
MSL
hPa
Rain
since
9 am
mm
Dir
 
Spd
km/h
Gust
km/h
Spd
kts
Gust
kts
21/04:00pm 32.2 31.1 10.8 27 12.4 NE 7 11 4 6 1011.4 1011.3 0.0
21/03:30pm 31.0 29.3 9.8 27 12.0 N 9 15 5 8 1011.8 1011.7 0.0
21/03:00pm 31.5 29.5 10.2 27 12.2 SE 11 15 6 8 1012.1 1012.0 0.0
21/02:30pm 31.2 28.6 9.4 26 12.3 SSW 13 22 7 12 1012.5 1012.4 0.0
21/02:00pm 30.5 29.0 10.5 29 11.5 N 9 15 5 8 1012.8 1012.7 0.0
21/01:30pm 30.0 28.9 10.0 29 11.3 S 6 13 3 7 1013.3 1013.2 0.0
21/01:00pm 29.4 27.8 11.5 33 10.4 SW 11 20 6 11 1013.6 1013.5 0.0
21/12:30pm 29.4 28.3 11.9 34 10.2 SSE 9 17 5 9 1013.7 1013.6 0.0
21/12:00pm 29.7 29.5 13.0 35 9.9 NE 6 13 3 7 1013.9 1013.8 0.0
21/11:30am 28.0 27.5 12.0 37 9.3 N 6 15 3 8 1013.9 1013.8 0.0
21/11:00am 26.5 25.9 12.2 41 8.3 N 7 13 4 7 1014.1 1013.9 0.0
21/10:30am 24.6 24.1 12.5 46 7.0 ENE 7 13 4 7 1014.4 1014.2 0.0
21/10:00am 23.1 21.9 11.5 48 6.5 E 9 13 5 7 1014.7 1014.5 0.0
21/09:30am 20.6 21.1 12.8 61 4.4 NE 2 6 1 3 1015.0 1014.8 0.0
21/09:00am 18.3 17.7 12.3 68 3.3 E 7 9 4 5 1015.2 1015.0 0.0
21/08:30am 15.1 15.2 12.6 85 1.4 NNE 4 7 2 4 1015.3 1015.1 0.0
21/08:00am 13.0 13.9 12.8 99 0.1 CALM 0 0 0 0 1015.7 1015.5 0.0
21/07:30am 11.2 11.5 11.0 99 0.1 CALM 0 0 0 0 1015.9 1015.7 0.0
21/07:00am 9.4 9.3 9.3 99 0.0 CALM 0 0 0 0 1015.8 1015.6 0.0
21/06:30am 7.4 5.6 7.3 99 0.0 N 6 7 3 4 1015.6 1015.4 0.0
21/06:00am 6.8 6.0 6.7 99 0.0 CALM 0 0 0 0 1015.0 1014.8 0.0
21/05:30am 6.7 5.9 6.6 99 0.0 CALM 0 0 0 0 1014.6 1014.4 0.0
21/05:00am 6.0 5.0 5.7 98 0.1 CALM 0 0 0 0 1014.4 1014.2 0.0
21/04:30am 5.8 4.8 5.4 97 0.2 CALM 0 0 0 0 1014.6 1014.4 0.0
21/04:00am 6.9 6.1 6.5 97 0.2 CALM 0 0 0 0 1014.9 1014.7 0.0
21/03:30am 7.4 6.7 7.0 97 0.2 CALM 0 0 0 0 1015.2 1015.0 0.0
21/03:00am 7.0 6.2 6.3 95 0.3 CALM 0 0 0 0 1015.5 1015.3 0.0
21/02:30am 7.6 6.1 7.0 96 0.3 SSW 4 7 2 4 1015.8 1015.6 0.0
21/02:00am 8.5 8.0 7.9 96 0.3 CALM 0 0 0 0 1016.1 1015.9 0.0
21/01:30am 8.4 7.5 7.6 95 0.4 SSW 2 7 1 4 1016.5 1016.3 0.0
21/01:00am 9.6 9.3 8.8 95 0.4 CALM 0 0 0 0 1016.9 1016.7 0.0
21/12:30am 10.3 10.1 9.2 93 0.5 CALM 0 0 0 0 1017.2 1017.0 0.0
21/12:00am 10.8 10.6 9.2 90 0.8 CALM 0 0 0 0 1017.3 1017.1 0.0
 
Date/Time
EDT
Tmp

°C
App
Tmp
°C
Dew
Point
°C
Rel
Hum
%
Delta-T

°C
Wind Press
QNH
hPa
Press
MSL
hPa
Rain
since
9 am
mm
Dir
 
Spd
km/h
Gust
km/h
Spd
kts
Gust
kts
20/11:30pm 12.5 12.7 10.6 88 1.0 CALM 0 0 0 0 1017.5 1017.3 0.0
20/11:00pm 13.9 14.1 10.5 80 1.8 CALM 0 0 0 0 1017.6 1017.4 0.0
20/10:30pm 15.7 14.5 11.7 77 2.2 S 9 13 5 7 1017.5 1017.3 0.0
20/10:00pm 16.3 14.4 11.9 75 2.4 SSE 13 17 7 9 1017.5 1017.3 0.0
20/09:30pm 17.1 15.3 12.2 73 2.7 SSE 13 20 7 11 1017.1 1016.9 0.0
20/09:00pm 17.8 16.0 12.0 69 3.2 SSE 13 20 7 11 1016.9 1016.7 0.0
20/08:30pm 19.4 17.5 11.7 61 4.3 SSE 13 24 7 13 1016.9 1016.7 0.0
20/08:00pm 20.7 17.8 11.1 54 5.3 SSE 17 24 9 13 1016.6 1016.4 0.0
20/07:30pm 22.0 19.9 11.1 50 6.1 SSE 13 19 7 10 1016.4 1016.2 0.0
20/07:00pm 23.0 20.3 9.0 41 7.5 SSE 13 20 7 11 1016.1 1015.9 0.0
20/06:30pm 23.6 21.0 9.2 40 7.8 SE 13 19 7 10 1015.9 1015.7 0.0
20/06:00pm 23.7 21.7 10.0 42 7.5 SSE 11 19 6 10 1015.8 1015.6 0.0
20/05:30pm 23.7 20.6 8.9 39 8.0 SE 15 26 8 14 1016.0 1015.8 0.0
20/05:00pm 23.3 20.6 7.4 36 8.3 S 11 17 6 9 1016.2 1016.0 0.0
20/04:30pm 24.2 21.8 10.1 41 7.8 SSW 13 28 7 15 1016.4 1016.2 0.0
20/04:00pm 23.8 18.7 6.1 32 9.1 SW 22 32 12 17 1016.8 1016.6 0.0
20/03:30pm 23.8 19.8 8.2 37 8.3 WSW 19 26 10 14 1017.2 1017.0 0.0
20/03:00pm 23.3 19.6 9.3 41 7.6 WSW 19 30 10 16 1017.4 1017.2 0.0
20/02:30pm 23.4 20.9 9.8 42 7.4 WSW 13 22 7 12 1017.8 1017.6 0.0
20/02:00pm 22.0 20.2 9.5 45 6.7 SW 9 17 5 9 1018.0 1017.8 0.0
20/01:30pm 21.1 18.5 9.4 47 6.3 WNW 13 20 7 11 1018.2 1018.0 0.0
20/01:00pm 20.4 19.1 9.9 51 5.6 WSW 7 17 4 9 1018.6 1018.4 0.0
20/12:30pm 19.7 18.6 10.1 54 5.2 NNW 6 13 3 7 1018.9 1018.7 0.0
20/12:00pm 19.1 17.8 10.1 56 4.8 SSW 7 17 4 9 1019.2 1019.0 0.0
20/11:30am 18.3 17.8 10.7 61 4.1 SE 4 11 2 6 1019.4 1019.2 0.0
20/11:00am 17.4 16.8 10.5 64 3.7 N 4 9 2 5 1019.6 1019.4 0.0
20/10:30am 16.5 15.5 10.4 67 3.2 NNW 6 11 3 6 1019.8 1019.6 0.0
20/10:00am 16.2 16.0 10.5 69 3.0 NNW 2 6 1 3 1019.8 1019.6 0.0
20/09:30am 15.3 14.3 10.3 72 2.6 NW 6 9 3 5 1019.6 1019.4 0.0
20/09:00am 15.8 15.8 9.9 68 3.1 CALM 0 6 0 3 1019.5 1019.3 0.0
20/08:30am 13.5 13.1 9.7 78 2.0 NNW 2 6 1 3 1019.2 1019.0 0.0
20/08:00am 12.2 12.0 9.2 82 1.5 CALM 0 0 0 0 1018.9 1018.7 0.0
20/07:30am 11.2 11.1 9.5 89 0.9 CALM 0 0 0 0 1018.6 1018.4 0.0
20/07:00am 9.4 9.2 9.1 98 0.1 CALM 0 0 0 0 1018.5 1018.3 0.0
20/06:30am 7.7 7.1 7.4 98 0.1 CALM 0 0 0 0 1018.3 1018.1 0.0
20/06:00am 7.5 6.9 7.2 98 0.1 CALM 0 0 0 0 1018.3 1018.1 0.0
20/05:30am 8.1 7.6 7.8 98 0.1 CALM 0 0 0 0 1018.2 1018.0 0.0
20/05:00am 7.7 7.1 7.4 98 0.1 CALM 0 0 0 0 1018.3 1018.1 0.0
20/04:30am 6.7 5.8 6.0 95 0.3 CALM 0 0 0 0 1018.1 1017.9 0.0
20/04:00am 7.5 6.8 6.8 95 0.3 CALM 0 0 0 0 1018.0 1017.8 0.0
20/03:30am 8.8 8.4 8.4 97 0.2 CALM 0 0 0 0 1018.1 1017.9 0.0
20/03:00am 8.7 8.3 8.4 98 0.1 CALM 0 0 0 0 1018.3 1018.1 0.0
20/02:30am 7.9 6.9 7.5 97 0.2 SE 2 6 1 3 1018.5 1018.3 0.0
20/02:00am 7.2 6.4 6.6 96 0.3 CALM 0 0 0 0 1018.7 1018.5 0.0
20/01:30am 7.3 6.5 6.7 96 0.3 CALM 0 0 0 0 1019.0 1018.8 0.0
20/01:00am 6.9 5.6 6.0 94 0.4 SSW 2 6 1 3 1019.2 1019.0 0.0
20/12:30am 7.4 6.5 6.0 91 0.6 CALM 0 0 0 0 1019.5 1019.3 0.0
20/12:00am 8.0 6.8 6.6 91 0.6 S 2 7 1 4 1019.7 1019.5 0.0
 
Date/Time
EDT
Tmp

°C
App
Tmp
°C
Dew
Point
°C
Rel
Hum
%
Delta-T

°C
Wind Press
QNH
hPa
Press
MSL
hPa
Rain
since
9 am
mm
Dir
 
Spd
km/h
Gust
km/h
Spd
kts
Gust
kts
19/11:30pm 8.6 7.3 6.1 84 1.1 SSE 2 7 1 4 1020.0 1019.8 0.0
19/11:00pm 10.4 8.4 7.1 80 1.6 S 7 9 4 5 1020.1 1020.0 0.0
19/10:30pm 11.0 9.2 7.1 77 1.9 SSE 6 9 3 5 1020.0 1019.8 0.0
19/10:00pm 11.9 9.5 6.8 71 2.4 SSE 9 11 5 6 1019.8 1019.6 0.0
19/09:30pm 13.0 10.6 6.8 66 3.0 SSE 9 13 5 7 1019.7 1019.5 0.0
19/09:00pm 14.2 11.2 7.5 64 3.3 SSE 13 20 7 11 1019.6 1019.4 0.0
19/08:30pm 14.9 11.9 7.7 62 3.6 SSE 13 20 7 11 1019.6 1019.4 0.0
19/08:00pm 16.1 12.4 8.1 59 4.0 S 17 26 9 14 1019.1 1018.9 0.0
19/07:30pm 17.7 14.5 8.3 54 4.8 SSE 15 24 8 13 1018.5 1018.3 0.0
19/07:00pm 18.7 15.8 8.1 50 5.5 S 13 20 7 11 1017.9 1017.7 0.0
19/06:30pm 19.6 15.7 7.0 44 6.4 SSW 17 32 9 17 1017.7 1017.5 0.0
19/06:00pm 20.0 17.1 6.7 42 6.7 SSW 11 19 6 10 1017.3 1017.1 0.0
19/05:30pm 20.2 16.3 7.2 43 6.6 SW 17 24 9 13 1017.3 1017.1 0.0
19/05:00pm 20.2 16.2 6.5 41 6.9 WSW 17 33 9 18 1017.3 1017.1 0.0
19/04:30pm 20.0 15.6 6.4 41 6.8 SW 19 33 10 18 1017.3 1017.1 0.0
19/04:00pm 19.8 15.9 5.5 39 7.0 S 15 32 8 17 1017.3 1017.1 0.0
19/03:30pm 19.9 15.9 6.6 42 6.7 SW 17 28 9 15 1017.3 1017.1 0.0
19/03:00pm 19.1 15.2 6.9 45 6.1 SSW 17 28 9 15 1017.3 1017.1 0.0
19/02:30pm 19.6 15.8 7.4 45 6.2 SSW 17 24 9 13 1017.4 1017.2 0.0
19/02:00pm 19.0 15.1 7.1 46 6.0 WSW 17 26 9 14 1017.3 1017.1 0.0
19/01:30pm 18.7 14.3 6.5 45 6.1 WSW 19 28 10 15 1017.5 1017.3 0.0
19/01:00pm 17.6 12.9 7.9 53 4.9 WSW 22 33 12 18 1017.7 1017.5 0.0
19/12:30pm 16.2 12.5 7.9 58 4.2 WSW 17 24 9 13 1017.6 1017.4 0.0
19/12:00pm 16.2 13.6 7.9 58 4.2 S 11 19 6 10 1017.5 1017.3 0.0
19/11:30am 15.3 12.8 8.1 62 3.6 SW 11 17 6 9 1017.6 1017.4 0.0
19/11:00am 15.4 13.6 9.3 67 3.1 SSW 9 17 5 9 1017.5 1017.3 0.0
19/10:30am 14.1 12.6 10.7 80 1.8 NNE 9 13 5 7 1017.3 1017.1 0.0
19/10:00am 13.6 12.4 9.5 76 2.1 ENE 6 9 3 5 1017.0 1016.8 0.0
19/09:30am 13.0 11.9 9.8 81 1.6 ESE 6 7 3 4 1016.9 1016.7 0.0
19/09:00am 12.5 11.4 9.9 84 1.3 ENE 6 9 3 5 1016.7 1016.5 3.2
19/08:30am 12.1 11.4 10.2 88 1.0 N 4 9 2 5 1016.6 1016.4 3.2
19/08:00am 11.2 11.1 9.6 90 0.8 CALM 0 0 0 0 1016.4 1016.2 3.2
19/07:30am 9.8 9.8 9.7 99 0.1 CALM 0 4 0 2 1016.1 1015.9 3.2
19/07:00am 9.2 8.6 9.1 99 0.0 NW 2 6 1 3 1015.7 1015.5 3.2
19/06:30am 7.8 7.3 7.7 99 0.0 CALM 0 0 0 0 1015.4 1015.2 3.2
19/06:00am 7.4 6.8 7.3 99 0.0 CALM 0 0 0 0 1015.2 1015.0 3.2
19/05:30am 7.3 6.7 7.2 99 0.0 CALM 0 6 0 3 1015.0 1014.8 3.2
19/05:00am 7.1 6.4 7.0 99 0.0 CALM 0 0 0 0 1014.6 1014.4 3.2
19/04:30am 7.1 6.4 7.0 99 0.0 CALM 0 6 0 3 1014.1 1013.9 3.2
19/04:00am 7.8 7.3 7.7 99 0.0 CALM 0 0 0 0 1013.7 1013.6 3.2
19/03:30am 7.4 6.8 7.3 99 0.0 CALM 0 0 0 0 1013.6 1013.5 3.2
19/03:00am 7.8 7.3 7.7 99 0.0 CALM 0 0 0 0 1013.6 1013.5 3.2
19/02:30am 7.0 6.2 6.7 98 0.1 CALM 0 0 0 0 1013.5 1013.4 3.2
19/02:00am 7.9 7.3 7.6 98 0.1 CALM 0 0 0 0 1013.5 1013.4 3.2
19/01:30am 7.8 7.2 7.4 97 0.2 CALM 0 0 0 0 1013.5 1013.4 3.2
19/01:00am 9.6 9.0 9.1 97 0.2 SSW 2 7 1 4 1013.5 1013.4 3.0
19/12:30am 10.1 10.0 9.5 96 0.3 CALM 0 0 0 0 1013.4 1013.3 3.0
19/12:00am 12.0 11.8 11.7 98 0.2 SW 4 9 2 5 1013.5 1013.4 3.0
 
Date/Time
EDT
Tmp

°C
App
Tmp
°C
Dew
Point
°C
Rel
Hum
%
Delta-T

°C
Wind Press
QNH
hPa
Press
MSL
hPa
Rain
since
9 am
mm
Dir
 
Spd
km/h
Gust
km/h
Spd
kts
Gust
kts
18/11:30pm 12.2 12.4 11.9 98 0.2 N 2 6 1 3 1013.2 1013.1 3.0
18/11:00pm 12.2 12.8 11.9 98 0.2 CALM 0 6 0 3 1013.2 1013.1 3.0
18/10:30pm 11.9 12.3 11.3 96 0.3 CALM 0 0 0 0 1012.9 1012.8 2.8
18/10:00pm 12.4 12.9 11.6 95 0.4 CALM 0 0 0 0 1012.8 1012.7 2.8
18/09:30pm 13.1 13.7 11.8 92 0.7 CALM 0 0 0 0 1012.5 1012.4 2.8
18/09:00pm 13.5 13.8 12.2 92 0.7 ESE 2 7 1 4 1012.1 1012.0 2.8
18/08:30pm 13.9 12.8 11.9 88 1.1 E 9 17 5 9 1011.9 1011.8 2.8
18/08:00pm 14.6 14.2 12.3 86 1.3 NNE 6 7 3 4 1011.4 1011.3 2.2
18/07:30pm 14.4 13.8 11.7 84 1.5 NNW 6 7 3 4 1011.2 1011.1 2.2
18/07:00pm 14.3 13.9 12.3 88 1.1 NNW 6 9 3 5 1010.7 1010.6 2.2
18/06:30pm 14.3 13.4 12.5 89 1.0 N 9 13 5 7 1010.1 1010.0 2.2
18/06:00pm 14.4 13.3 13.1 92 0.7 W 11 19 6 10 1009.9 1009.8 2.2
18/05:30pm 13.5 9.3 12.4 93 0.6 WSW 26 41 14 22 1009.7 1009.5 1.2
18/05:00pm 14.6 9.2 12.3 86 1.3 WSW 32 52 17 28 1008.8 1008.6 0.2
18/04:46pm 14.8 8.6 12.7 87 1.2 WSW 37 56 20 30 1008.1 1007.9 0.2
18/04:30pm 15.7 8.8 11.5 76 2.3 WSW 39 57 21 31 1008.0 1007.8 0.0

Latest Capital City Observations: Canberra | Sydney | Melbourne | Brisbane | Adelaide | Perth | Hobart | Darwin

Other Formats:

Comma delimited format used in spreadsheet applications
http://www.bom.gov.au/fwo/IDV60901/IDV60901.94864.axf

JavaScript Object Notation format (JSON) in row-major order
http://www.bom.gov.au/fwo/IDV60901/IDV60901.94864.json